Time;durP1;ratioP1;P1;durP2;ratioP2;P2;SDS_P1;SDS_P2;PMS_P1;PMS_P2;Temp;Humidity;BMP_temperature;BMP_pressure;BME280_temperature;BME280_humidity;BME280_pressure;Samples;Min_cycle;Max_cycle;Signal;HPM_P1;HPM_P2
2024/03/19 00:00:35;;;;;;;20.35;11.98;;;;;;;4.39;57.04;101777.19;5026650;28;20434;-71
2024/03/19 00:03:01;;;;;;;21.65;11.98;;;;;;;4.36;56.76;101774.59;5028576;28;20067;-72
2024/03/19 00:05:27;;;;;;;24.23;10.80;;;;;;;4.33;57.00;101765.97;5034251;28;20025;-71
2024/03/19 00:07:52;;;;;;;21.88;10.65;;;;;;;4.23;56.89;101762.53;5024489;28;20055;-70
2024/03/19 00:10:17;;;;;;;25.00;11.55;;;;;;;4.19;57.22;101771.13;5034220;28;20044;-70
2024/03/19 00:12:43;;;;;;;21.55;11.23;;;;;;;4.16;57.01;101773.69;5022441;28;20960;-75
2024/03/19 00:15:09;;;;;;;28.70;13.07;;;;;;;4.11;57.29;101770.25;5034501;28;20401;-70
2024/03/19 00:17:36;;;;;;;20.63;10.30;;;;;;;4.09;56.69;101764.22;5025543;28;20155;-76
2024/03/19 00:20:05;;;;;;;18.83;10.70;;;;;;;3.98;56.65;101775.44;5013093;28;20905;-77
2024/03/19 00:22:34;;;;;;;19.38;10.73;;;;;;;3.84;57.32;101774.50;5030853;28;20136;-73
2024/03/19 00:24:59;;;;;;;18.63;10.48;;;;;;;3.93;57.20;101781.44;5029334;28;20039;-75
2024/03/19 00:27:25;;;;;;;23.02;10.57;;;;;;;3.82;57.08;101780.53;5027817;28;20037;-76
2024/03/19 00:29:52;;;;;;;20.35;9.65;;;;;;;3.87;56.97;101778.81;5033851;28;20052;-70
2024/03/19 00:32:17;;;;;;;17.60;9.85;;;;;;;3.82;56.45;101776.22;5032699;28;21896;-73
2024/03/19 00:34:43;;;;;;;25.65;10.70;;;;;;;3.77;56.85;101772.78;5024090;28;20038;-73
2024/03/19 00:37:08;;;;;;;17.52;10.00;;;;;;;3.75;56.55;101769.31;5029263;28;20148;-73
2024/03/19 00:39:34;;;;;;;18.38;10.40;;;;;;;3.70;56.78;101766.72;5026109;28;20039;-71
2024/03/19 00:42:01;;;;;;;21.52;10.63;;;;;;;3.67;56.81;101771.00;5029484;28;20097;-73
2024/03/19 00:44:27;;;;;;;21.60;10.68;;;;;;;3.55;57.00;101764.09;5031500;28;20029;-77
2024/03/19 00:46:54;;;;;;;18.65;10.18;;;;;;;3.57;57.08;101770.97;5036722;28;20028;-75
2024/03/19 00:49:23;;;;;;;19.67;9.73;;;;;;;3.56;56.88;101770.97;5031848;28;20063;-75
2024/03/19 00:51:48;;;;;;;17.85;10.32;;;;;;;3.51;57.10;101770.94;5015449;28;20040;-73
2024/03/19 00:54:14;;;;;;;24.80;9.77;;;;;;;3.54;57.17;101764.97;5028188;28;20480;-68
2024/03/19 00:56:40;;;;;;;22.08;10.27;;;;;;;3.62;56.57;101763.25;5027359;28;20037;-67
2024/03/19 00:59:05;;;;;;;14.68;8.38;;;;;;;3.67;56.47;101755.50;5027942;28;20037;-68
2024/03/19 01:01:31;;;;;;;15.90;9.50;;;;;;;3.57;56.43;101763.22;5026282;28;20037;-67
2024/03/19 01:03:58;;;;;;;21.63;9.63;;;;;;;3.48;56.77;101758.03;5036420;28;20033;-67
2024/03/19 01:06:25;;;;;;;17.83;9.05;;;;;;;3.37;56.94;101763.16;5027527;28;20031;-69
2024/03/19 01:08:50;;;;;;;16.83;8.93;;;;;;;3.46;56.21;101764.91;5023439;28;20033;-69
2024/03/19 01:11:16;;;;;;;19.75;9.57;;;;;;;3.38;56.45;101766.59;5029384;28;20048;-69
2024/03/19 01:13:43;;;;;;;21.10;9.43;;;;;;;3.47;56.02;101761.47;5024674;28;20118;-66
2024/03/19 01:16:09;;;;;;;19.02;8.70;;;;;;;3.49;56.10;101756.31;5026135;28;20788;-68
2024/03/19 01:18:35;;;;;;;16.45;8.95;;;;;;;3.52;56.11;101762.34;5026065;28;20043;-68
2024/03/19 01:21:02;;;;;;;23.15;8.95;;;;;;;3.64;56.08;101765.84;5026503;28;20036;-66
2024/03/19 01:23:27;;;;;;;16.30;8.73;;;;;;;3.67;55.72;101758.97;5031870;28;20058;-68
2024/03/19 01:25:53;;;;;;;20.27;8.75;;;;;;;3.66;55.22;101749.47;5015462;28;20091;-68
2024/03/19 01:28:18;;;;;;;16.75;9.40;;;;;;;3.66;55.33;101752.06;5031814;28;20044;-69
2024/03/19 01:30:44;;;;;;;14.23;8.13;;;;;;;3.68;55.34;101749.47;5024730;28;20060;-68
2024/03/19 01:33:09;;;;;;;16.27;8.27;;;;;;;3.66;54.99;101753.78;5020947;28;20974;-69
2024/03/19 01:35:34;;;;;;;16.95;8.13;;;;;;;3.73;55.20;101750.34;5029564;28;20052;-67
2024/03/19 01:38:00;;;;;;;14.48;8.55;;;;;;;3.76;55.09;101752.94;5026955;28;20073;-68
2024/03/19 01:40:26;;;;;;;17.15;7.45;;;;;;;3.77;54.72;101752.94;5033125;28;20037;-69
2024/03/19 01:42:51;;;;;;;17.77;7.60;;;;;;;3.81;54.68;101746.06;5023975;28;20613;-69
2024/03/19 01:45:17;;;;;;;14.30;7.28;;;;;;;3.92;54.33;101741.78;5029049;28;20029;-69
2024/03/19 01:47:42;;;;;;;14.95;7.40;;;;;;;3.98;54.41;101741.78;5022661;28;20163;-68
2024/03/19 01:50:14;;;;;;;12.50;6.22;;;;;;;3.96;54.38;101748.69;5029144;28;20063;-69
2024/03/19 01:52:46;;;;;;;17.45;8.27;;;;;;;3.91;54.55;101740.03;5013078;28;20107;-69
2024/03/19 01:55:12;;;;;;;12.50;6.25;;;;;;;3.87;54.38;101743.47;5030586;28;20106;-68
2024/03/19 01:57:44;;;;;;;15.27;7.10;;;;;;;3.90;54.08;101738.31;5020733;28;20033;-69
2024/03/19 02:00:10;;;;;;;14.27;7.45;;;;;;;4.09;53.71;101728.00;5028673;28;20541;-68
2024/03/19 02:02:39;;;;;;;11.45;6.57;;;;;;;4.09;53.76;101730.59;5024070;28;20040;-69
2024/03/19 02:05:06;;;;;;;10.02;6.35;;;;;;;4.12;53.48;101733.16;5030164;28;20028;-68
2024/03/19 02:07:32;;;;;;;18.10;7.25;;;;;;;4.17;53.20;101726.28;5023891;28;20047;-68
2024/03/19 02:09:57;;;;;;;14.07;6.50;;;;;;;4.10;53.51;101719.38;5039323;28;20063;-69
2024/03/19 02:12:28;;;;;;;12.07;7.20;;;;;;;4.00;53.54;101719.34;5040506;28;20148;-68
2024/03/19 02:14:54;;;;;;;14.90;6.45;;;;;;;4.27;53.29;101722.81;5028392;28;20032;-69
2024/03/19 02:17:22;;;;;;;10.25;6.70;;;;;;;4.21;53.43;101717.66;5032133;28;20093;-72
2024/03/19 02:19:49;;;;;;;12.63;7.20;;;;;;;4.31;53.33;101715.94;5025651;28;20025;-72
2024/03/19 02:22:15;;;;;;;12.25;6.78;;;;;;;4.30;53.26;101711.63;5039015;28;20041;-70
2024/03/19 02:24:42;;;;;;;13.85;6.30;;;;;;;4.13;53.72;101709.88;5028168;28;20553;-70
2024/03/19 02:27:08;;;;;;;12.35;6.32;;;;;;;4.13;53.94;101709.88;5032699;28;20024;-70
2024/03/19 02:29:33;;;;;;;18.17;8.18;;;;;;;4.09;53.92;101705.56;5030171;28;20031;-73
2024/03/19 02:31:59;;;;;;;18.77;8.35;;;;;;;4.10;53.61;101704.72;5033580;28;20024;-71
2024/03/19 02:34:25;;;;;;;17.02;6.63;;;;;;;4.06;53.78;101707.31;5032964;28;20036;-69
2024/03/19 02:36:51;;;;;;;12.52;6.07;;;;;;;4.01;54.11;101703.00;5029689;28;20044;-69
2024/03/19 02:39:17;;;;;;;12.00;6.68;;;;;;;3.99;53.94;101702.13;5029757;28;20607;-69
2024/03/19 02:41:43;;;;;;;14.32;7.47;;;;;;;3.85;54.40;101703.84;5028319;28;20079;-69
2024/03/19 02:44:09;;;;;;;12.00;5.93;;;;;;;3.99;53.77;101707.28;5027770;28;20556;-72
2024/03/19 02:46:36;;;;;;;11.52;6.43;;;;;;;3.96;54.23;101698.66;5039230;28;20032;-69
2024/03/19 02:49:03;;;;;;;19.33;7.00;;;;;;;4.15;53.80;101702.13;5037667;28;20150;-69
2024/03/19 02:51:29;;;;;;;13.20;6.55;;;;;;;4.10;53.54;101696.09;5032794;28;20177;-72
2024/03/19 02:53:55;;;;;;;12.23;6.70;;;;;;;4.16;53.18;101698.66;5030000;28;20055;-72
2024/03/19 02:56:20;;;;;;;13.15;6.60;;;;;;;4.13;53.32;101696.09;5032682;28;20137;-71
2024/03/19 02:58:46;;;;;;;14.38;6.35;;;;;;;4.28;53.21;101700.41;5029232;28;20041;-71
2024/03/19 03:01:11;;;;;;;11.95;5.97;;;;;;;4.19;52.94;101703.84;5024721;28;20520;-71
2024/03/19 03:03:37;;;;;;;14.25;6.90;;;;;;;4.18;53.52;101696.94;5028534;28;20450;-69
2024/03/19 03:06:02;;;;;;;11.90;7.15;;;;;;;4.26;53.18;101694.38;5016197;28;20028;-74
2024/03/19 03:08:28;;;;;;;11.30;6.78;;;;;;;4.22;53.06;101694.34;5035892;28;20055;-74
2024/03/19 03:10:54;;;;;;;11.32;6.43;;;;;;;4.15;53.28;101690.03;5028879;28;20044;-75
2024/03/19 03:13:19;;;;;;;12.02;7.53;;;;;;;4.28;53.05;101693.50;5032605;28;20047;-73
2024/03/19 03:15:45;;;;;;;14.25;6.10;;;;;;;4.30;53.03;101696.09;5030060;28;20127;-71
2024/03/19 03:18:10;;;;;;;10.32;6.32;;;;;;;4.23;53.41;101697.81;5035796;28;20040;-73
2024/03/19 03:20:38;;;;;;;14.95;6.57;;;;;;;4.24;52.90;101703.84;5022367;28;20036;-73
2024/03/19 03:23:04;;;;;;;13.43;6.90;;;;;;;4.42;53.01;101707.28;5031953;28;20437;-73
2024/03/19 03:25:32;;;;;;;12.15;6.70;;;;;;;4.31;52.84;101711.59;5041360;28;20032;-73
2024/03/19 03:27:58;;;;;;;14.90;6.40;;;;;;;4.34;52.97;101713.31;5027006;28;20527;-72
2024/03/19 03:30:24;;;;;;;11.15;6.55;;;;;;;4.08;53.52;101710.75;5031685;28;20032;-72
2024/03/19 03:32:50;;;;;;;10.00;6.43;;;;;;;4.15;53.53;101712.47;5029164;28;20131;-77
2024/03/19 03:35:18;;;;;;;13.52;6.25;;;;;;;4.19;52.88;101714.22;5032741;28;20082;-77
2024/03/19 03:37:46;;;;;;;12.40;6.50;;;;;;;4.18;53.08;101712.47;5026482;28;20037;-76
2024/03/19 03:40:17;;;;;;;12.90;7.03;;;;;;;4.11;53.34;101708.16;5038950;28;20383;-76
2024/03/19 03:42:47;;;;;;;12.93;6.13;;;;;;;4.14;53.03;101715.91;5024859;28;20037;-76
2024/03/19 03:45:15;;;;;;;10.77;6.57;;;;;;;4.11;53.66;101710.75;5039748;28;20028;-77
2024/03/19 03:47:40;;;;;;;14.32;6.65;;;;;;;4.19;53.08;101714.22;5027464;28;20045;-75
2024/03/19 03:50:08;;;;;;;13.35;6.35;;;;;;;4.02;53.74;101714.19;5025838;28;20033;-75
2024/03/19 03:52:34;;;;;;;15.55;6.70;;;;;;;4.11;53.46;101715.91;5030842;28;20695;-75
2024/03/19 03:55:04;;;;;;;12.93;5.82;;;;;;;4.08;53.57;101713.34;5031140;28;20058;-76
2024/03/19 03:57:31;;;;;;;12.30;7.18;;;;;;;3.96;54.17;101717.66;5029905;28;20293;-72
2024/03/19 03:59:57;;;;;;;11.88;6.93;;;;;;;3.94;54.19;101710.72;5012283;28;20028;-70
2024/03/19 04:02:23;;;;;;;12.80;6.95;;;;;;;4.08;53.89;101714.19;5029005;28;20045;-70
2024/03/19 04:04:51;;;;;;;18.48;6.78;;;;;;;3.93;54.12;101709.88;5028444;28;20033;-70
2024/03/19 04:07:17;;;;;;;13.65;6.28;;;;;;;4.00;53.96;101719.34;5031523;28;20037;-69
2024/03/19 04:09:42;;;;;;;15.25;7.95;;;;;;;4.20;53.56;101721.09;5026806;28;20547;-69
2024/03/19 04:12:08;;;;;;;16.30;8.40;;;;;;;4.15;53.62;101717.66;5033919;28;20035;-72
2024/03/19 04:14:33;;;;;;;11.50;6.53;;;;;;;4.16;53.63;101720.25;5030111;28;20566;-75
2024/03/19 04:16:59;;;;;;;17.95;6.78;;;;;;;4.10;53.58;101720.25;5029181;28;20606;-75
2024/03/19 04:19:24;;;;;;;16.05;7.93;;;;;;;4.21;53.63;101717.66;5019429;28;20052;-75
2024/03/19 04:21:50;;;;;;;13.25;7.40;;;;;;;4.12;53.71;101723.69;5044081;28;20056;-75
2024/03/19 04:24:16;;;;;;;12.65;6.43;;;;;;;4.26;53.27;101720.25;5028991;28;20092;-75
2024/03/19 04:26:41;;;;;;;14.35;6.28;;;;;;;4.09;53.74;101715.06;5030468;28;20530;-73
2024/03/19 04:29:14;;;;;;;16.38;7.90;;;;;;;4.23;53.21;101718.53;5033675;28;20098;-72
2024/03/19 04:31:41;;;;;;;17.98;9.00;;;;;;;4.08;54.03;101723.69;5035142;28;20029;-72
2024/03/19 04:34:10;;;;;;;15.82;6.82;;;;;;;4.16;54.02;101714.19;5030482;28;20036;-72
2024/03/19 04:36:38;;;;;;;16.23;7.35;;;;;;;4.06;54.17;101720.25;5030898;28;20072;-71
2024/03/19 04:39:10;;;;;;;13.35;8.15;;;;;;;4.15;54.07;101718.50;5025455;28;20517;-70
2024/03/19 04:41:39;;;;;;;14.48;7.05;;;;;;;4.17;54.18;101715.94;5031352;28;20035;-70
2024/03/19 04:44:06;;;;;;;13.23;7.43;;;;;;;4.06;54.50;101718.50;5025960;28;20036;-71
2024/03/19 04:46:31;;;;;;;14.27;7.57;;;;;;;3.87;54.51;101720.19;5027217;28;20040;-71
2024/03/19 04:48:57;;;;;;;13.85;7.40;;;;;;;4.00;54.56;101718.50;5027506;28;20051;-71
2024/03/19 04:51:23;;;;;;;18.35;8.75;;;;;;;4.08;54.48;101718.53;5027501;28;20041;-71
2024/03/19 04:53:49;;;;;;;11.98;7.15;;;;;;;4.16;54.02;101724.53;5024804;28;20640;-71
2024/03/19 04:56:14;;;;;;;15.77;8.05;;;;;;;4.16;54.55;101724.53;5017764;28;20039;-71
2024/03/19 04:58:40;;;;;;;16.17;7.93;;;;;;;4.16;54.12;101719.38;5019273;28;20076;-70
2024/03/19 05:01:05;;;;;;;16.58;8.48;;;;;;;4.15;54.70;101722.81;5025197;28;20040;-71
2024/03/19 05:03:31;;;;;;;20.08;9.18;;;;;;;4.12;54.58;101723.69;5014738;28;20064;-71
2024/03/19 05:05:56;;;;;;;17.23;8.55;;;;;;;4.22;54.50;101722.81;5030701;28;20029;-71
2024/03/19 05:08:22;;;;;;;18.48;8.35;;;;;;;4.17;54.63;101728.88;5028088;28;20213;-72
2024/03/19 05:10:49;;;;;;;16.83;8.77;;;;;;;4.14;54.79;101732.31;5026886;28;20033;-72
2024/03/19 05:13:14;;;;;;;15.13;8.80;;;;;;;4.18;54.44;101736.59;5033730;28;20060;-71
2024/03/19 05:15:40;;;;;;;16.67;8.50;;;;;;;4.18;54.77;101728.00;5030819;28;20029;-74
2024/03/19 05:18:07;;;;;;;15.60;8.07;;;;;;;4.22;54.49;101729.72;5018758;28;20110;-74
2024/03/19 05:20:34;;;;;;;16.55;8.20;;;;;;;4.06;54.96;101733.19;5033090;28;20371;-73
2024/03/19 05:23:00;;;;;;;15.82;8.52;;;;;;;4.18;54.64;101740.94;5030503;28;20036;-74
2024/03/19 05:25:25;;;;;;;17.15;8.90;;;;;;;4.16;54.64;101737.47;5033870;28;20038;-75
2024/03/19 05:27:51;;;;;;;16.00;8.13;;;;;;;4.20;54.46;101734.88;5026813;28;20075;-75
2024/03/19 05:30:17;;;;;;;15.50;9.10;;;;;;;4.26;54.25;101738.38;5019407;28;20558;-74
2024/03/19 05:32:42;;;;;;;15.15;8.52;;;;;;;4.25;54.85;101734.88;5018953;28;20116;-72
2024/03/19 05:35:08;;;;;;;20.30;7.93;;;;;;;4.35;54.24;101741.81;5042508;28;20029;-71
2024/03/19 05:37:33;;;;;;;16.20;8.35;;;;;;;4.32;54.67;101743.50;5025565;28;20070;-71
2024/03/19 05:39:59;;;;;;;20.35;10.05;;;;;;;4.31;54.48;101740.06;5027709;28;20032;-70
2024/03/19 05:42:24;;;;;;;16.30;9.02;;;;;;;4.36;54.47;101743.53;5029549;28;20710;-70
2024/03/19 05:44:49;;;;;;;14.77;9.20;;;;;;;4.41;54.60;101746.13;5026970;28;20308;-74
2024/03/19 05:47:16;;;;;;;16.20;9.63;;;;;;;4.46;54.25;101744.41;5031943;28;20063;-74
2024/03/19 05:49:42;;;;;;;18.00;8.55;;;;;;;4.48;54.38;101747.00;5020431;28;20881;-74
2024/03/19 05:52:08;;;;;;;15.55;9.95;;;;;;;4.58;54.31;101759.06;5028027;28;20042;-74
2024/03/19 05:54:34;;;;;;;20.27;9.75;;;;;;;4.53;54.47;101750.44;5031562;28;20044;-74
2024/03/19 05:56:59;;;;;;;15.80;8.52;;;;;;;4.57;54.60;101749.56;5028722;28;20394;-73
2024/03/19 05:59:25;;;;;;;19.13;10.48;;;;;;;4.56;54.74;101742.66;5026970;28;20040;-72
2024/03/19 06:01:52;;;;;;;18.52;9.65;;;;;;;4.64;54.80;101751.28;5013606;28;20029;-71
2024/03/19 06:04:17;;;;;;;15.40;8.95;;;;;;;4.71;54.60;101747.81;5027265;28;20418;-72
2024/03/19 06:06:43;;;;;;;17.45;10.05;;;;;;;4.70;54.68;101748.69;5028091;28;20021;-72
2024/03/19 06:09:11;;;;;;;21.65;9.50;;;;;;;4.77;54.61;101739.19;5025332;28;20415;-74
2024/03/19 06:11:36;;;;;;;17.08;9.95;;;;;;;4.56;54.65;101745.25;5034075;28;20048;-74
2024/03/19 06:14:02;;;;;;;17.60;9.77;;;;;;;4.80;54.30;101739.16;5010751;28;20036;-72
2024/03/19 06:16:28;;;;;;;18.83;10.32;;;;;;;4.82;54.56;101738.28;5028432;28;20041;-73
2024/03/19 06:18:53;;;;;;;18.77;10.65;;;;;;;4.86;54.61;101738.31;5026973;28;20037;-74
2024/03/19 06:21:18;;;;;;;24.02;10.70;;;;;;;4.86;54.41;101740.91;5030800;28;20090;-73
2024/03/19 06:23:44;;;;;;;17.38;10.35;;;;;;;4.87;54.31;101735.69;5030697;28;20044;-74
2024/03/19 06:26:09;;;;;;;20.10;10.23;;;;;;;4.88;54.85;101741.75;5028422;28;20355;-70
2024/03/19 06:28:35;;;;;;;15.55;9.52;;;;;;;4.94;54.65;101747.78;5028370;28;20114;-70
2024/03/19 06:31:00;;;;;;;24.13;10.50;;;;;;;4.91;54.63;101742.63;5024769;28;20045;-70
2024/03/19 06:33:26;;;;;;;16.33;10.02;;;;;;;4.98;54.83;101749.50;5031212;28;20047;-70
2024/03/19 06:35:52;;;;;;;24.92;10.32;;;;;;;4.90;54.73;101752.97;5020625;28;20029;-70
2024/03/19 06:38:17;;;;;;;22.20;11.80;;;;;;;5.03;54.58;101752.97;5031750;28;20175;-70
2024/03/19 06:40:44;;;;;;;21.92;11.25;;;;;;;4.97;54.59;101754.72;5029573;28;20386;-70
2024/03/19 06:43:10;;;;;;;20.83;12.23;;;;;;;5.03;54.39;101757.28;5020715;28;21732;-70
2024/03/19 06:45:35;;;;;;;19.63;10.63;;;;;;;5.11;54.74;101760.72;5028944;28;20036;-70
2024/03/19 06:48:01;;;;;;;20.48;10.20;;;;;;;5.12;54.76;101772.78;5022772;28;20037;-70
2024/03/19 06:50:26;;;;;;;20.20;11.40;;;;;;;5.08;54.63;101765.03;5031829;28;20024;-70
2024/03/19 06:52:53;;;;;;;21.60;11.85;;;;;;;5.01;55.21;101764.19;5021063;28;20051;-70
2024/03/19 06:55:20;;;;;;;18.60;11.35;;;;;;;5.28;54.58;101770.16;5037307;28;20033;-67
2024/03/19 06:57:46;;;;;;;24.98;11.23;;;;;;;5.13;55.35;101769.34;5026254;28;20069;-70
2024/03/19 07:00:18;;;;;;;21.50;10.95;;;;;;;5.30;55.00;101768.41;5013111;28;20485;-70
2024/03/19 07:02:46;;;;;;;28.70;11.50;;;;;;;5.34;54.92;101770.13;5030072;28;20051;-70
2024/03/19 07:05:12;;;;;;;27.73;13.10;;;;;;;5.53;54.70;101769.19;5030440;28;20055;-71
2024/03/19 07:07:41;;;;;;;24.80;12.73;;;;;;;5.53;54.66;101771.78;5029967;28;20036;-70
2024/03/19 07:10:12;;;;;;;23.50;12.38;;;;;;;5.52;54.44;101775.25;5030328;28;20043;-70
2024/03/19 07:12:39;;;;;;;22.42;12.57;;;;;;;5.46;54.47;101773.56;5033833;28;20033;-76
2024/03/19 07:15:09;;;;;;;27.13;12.77;;;;;;;5.56;54.50;101776.94;5031048;28;20033;-76
2024/03/19 07:17:38;;;;;;;21.65;10.43;;;;;;;5.56;54.79;101776.94;5018404;28;20044;-76
2024/03/19 07:20:09;;;;;;;24.77;11.48;;;;;;;5.69;54.75;101784.69;5031164;28;20040;-76
2024/03/19 07:22:36;;;;;;;19.70;12.98;;;;;;;5.67;54.37;101782.94;5027109;28;20047;-78
2024/03/19 07:25:04;;;;;;;19.95;10.77;;;;;;;5.65;54.82;101776.91;5032590;28;20066;-77
2024/03/19 07:27:30;;;;;;;26.75;12.35;;;;;;;5.66;54.65;101773.47;5027527;28;20037;-73
2024/03/19 07:29:55;;;;;;;29.63;12.73;;;;;;;5.70;55.04;101770.84;5020227;28;20048;-77
2024/03/19 07:32:21;;;;;;;26.65;12.75;;;;;;;5.75;54.77;101775.16;5038238;28;20109;-76
2024/03/19 07:34:46;;;;;;;22.38;12.25;;;;;;;5.86;54.97;101780.28;5031962;28;20051;-72
2024/03/19 07:37:12;;;;;;;22.17;12.30;;;;;;;5.97;54.59;101781.06;5026316;28;22996;-70
2024/03/19 07:39:40;;;;;;;25.55;12.38;;;;;;;6.19;54.33;101786.09;5028483;28;20032;-72
2024/03/19 07:42:06;;;;;;;22.98;12.40;;;;;;;6.21;54.18;101786.97;5033880;28;20029;-71
2024/03/19 07:44:32;;;;;;;23.52;12.48;;;;;;;6.26;54.11;101787.78;5028761;28;20098;-67
2024/03/19 07:46:57;;;;;;;23.33;12.75;;;;;;;6.23;54.07;101785.22;5021881;28;20031;-70
2024/03/19 07:49:23;;;;;;;26.15;12.38;;;;;;;6.37;53.91;101791.19;5030337;28;20123;-69
2024/03/19 07:51:49;;;;;;;21.75;12.00;;;;;;;6.45;54.20;101794.59;5035256;28;20060;-68
2024/03/19 07:54:14;;;;;;;25.25;12.55;;;;;;;6.52;53.89;101800.59;5024825;28;21285;-68
2024/03/19 07:56:41;;;;;;;28.15;13.40;;;;;;;6.63;53.66;101792.72;5029540;28;20029;-70
2024/03/19 07:59:07;;;;;;;27.40;13.18;;;;;;;6.58;53.95;101794.50;5024838;28;20044;-71
2024/03/19 08:01:35;;;;;;;23.80;13.85;;;;;;;6.73;53.70;101801.28;5028610;28;20065;-69
2024/03/19 08:04:00;;;;;;;26.13;12.77;;;;;;;6.89;53.11;101798.53;5024805;28;20120;-69
2024/03/19 08:06:26;;;;;;;21.15;12.88;;;;;;;7.08;53.02;101803.53;5029433;28;21745;-68
2024/03/19 08:08:52;;;;;;;25.52;13.63;;;;;;;7.27;52.02;101802.47;5028259;28;20033;-69
2024/03/19 08:11:18;;;;;;;23.02;12.00;;;;;;;7.17;52.33;101798.25;5026532;28;20055;-69
2024/03/19 08:13:44;;;;;;;24.33;12.38;;;;;;;7.16;52.69;101806.94;5030486;28;20125;-69
2024/03/19 08:16:10;;;;;;;28.67;12.98;;;;;;;7.24;52.48;101804.25;5023977;28;20752;-71
2024/03/19 08:18:36;;;;;;;23.98;12.65;;;;;;;7.31;52.61;101808.47;5033414;28;20254;-69
2024/03/19 08:21:02;;;;;;;28.38;13.18;;;;;;;7.41;52.99;101806.66;5021925;28;20387;-69
2024/03/19 08:23:27;;;;;;;23.38;12.40;;;;;;;7.44;53.08;101804.84;5033061;28;20151;-66
2024/03/19 08:25:53;;;;;;;24.40;12.15;;;;;;;7.61;52.02;101796.91;5028015;28;20913;-67
2024/03/19 08:28:19;;;;;;;26.42;12.30;;;;;;;7.50;52.91;101794.38;5026654;28;20040;-68
2024/03/19 08:30:45;;;;;;;22.40;12.85;;;;;;;7.62;52.31;101789.94;5027512;28;20055;-68
2024/03/19 08:33:11;;;;;;;20.58;12.13;;;;;;;7.62;52.39;101790.78;5023323;28;20098;-69
2024/03/19 08:35:36;;;;;;;25.15;14.02;;;;;;;7.94;52.24;101792.13;5032480;28;20131;-67
2024/03/19 08:38:02;;;;;;;22.38;12.82;;;;;;;8.03;51.52;101789.38;5019513;28;21075;-68
2024/03/19 08:40:30;;;;;;;19.63;12.27;;;;;;;8.20;51.21;101790.88;5030553;28;20036;-67
2024/03/19 08:42:55;;;;;;;27.02;13.18;;;;;;;8.43;50.76;101790.53;5022826;28;20067;-71
2024/03/19 08:45:23;;;;;;;24.48;11.93;;;;;;;8.54;51.01;101794.66;5026350;28;20452;-70
2024/03/19 08:47:51;;;;;;;22.10;12.07;;;;;;;8.50;50.13;101795.59;5026549;28;20054;-70
2024/03/19 08:50:17;;;;;;;20.25;12.00;;;;;;;8.35;50.66;101798.44;5026884;28;20037;-70
2024/03/19 08:52:42;;;;;;;24.05;12.13;;;;;;;8.50;50.44;101799.94;5028110;28;20044;-70
2024/03/19 08:55:09;;;;;;;24.27;13.88;;;;;;;8.79;50.31;101796.88;5025415;28;20635;-70
2024/03/19 08:57:35;;;;;;;23.60;13.18;;;;;;;8.78;49.38;101805.56;5044278;28;20068;-68
2024/03/19 09:00:01;;;;;;;25.40;11.85;;;;;;;8.83;50.26;101795.94;5023173;28;20123;-71
2024/03/19 09:02:26;;;;;;;23.73;12.15;;;;;;;9.28;49.37;101793.34;5032074;28;20051;-71
2024/03/19 09:04:52;;;;;;;28.70;13.27;;;;;;;9.36;48.94;101788.81;5027024;28;20049;-69
2024/03/19 09:07:18;;;;;;;22.85;13.13;;;;;;;9.54;49.06;101786.72;5024850;28;20040;-71
2024/03/19 09:09:45;;;;;;;23.40;12.45;;;;;;;9.71;48.17;101784.59;5030523;28;20028;-69
2024/03/19 09:12:11;;;;;;;21.30;12.38;;;;;;;9.95;47.67;101787.59;5025186;28;20040;-69
2024/03/19 09:14:37;;;;;;;19.10;11.93;;;;;;;10.15;47.23;101788.00;5035312;28;20031;-68
2024/03/19 09:17:02;;;;;;;21.33;12.07;;;;;;;10.22;46.15;101792.19;5028040;28;20036;-69
2024/03/19 09:19:37;;;;;;;27.98;12.70;;;;;;;10.16;47.02;101784.47;5021243;28;20036;-69
2024/03/19 09:22:02;;;;;;;22.10;12.98;;;;;;;10.62;46.80;101796.41;5024234;28;20029;-71
2024/03/19 09:24:28;;;;;;;24.73;12.75;;;;;;;10.44;46.37;101783.81;5026432;28;20683;-70
2024/03/19 09:26:54;;;;;;;20.77;11.68;;;;;;;11.42;45.86;101788.22;5027039;28;20040;-71
2024/03/19 09:29:19;;;;;;;18.95;11.27;;;;;;;11.30;45.31;101789.41;5021277;28;20051;-68
2024/03/19 09:31:47;;;;;;;21.83;11.70;;;;;;;11.55;44.44;101789.53;5030840;28;20060;-68
2024/03/19 09:34:13;;;;;;;26.05;12.95;;;;;;;11.39;44.69;101789.13;5018276;28;20156;-68
2024/03/19 09:36:38;;;;;;;20.90;12.10;;;;;;;11.41;43.51;101795.19;5031745;28;20033;-68
2024/03/19 09:39:10;;;;;;;21.35;11.98;;;;;;;10.79;45.46;101789.88;5023111;28;20033;-70
2024/03/19 09:41:48;;;;;;;21.40;11.07;;;;;;;11.27;45.45;101794.72;5021505;28;20039;-70
2024/03/19 09:44:17;;;;;;;22.15;11.35;;;;;;;11.72;44.63;101789.03;5021417;28;20577;-68
2024/03/19 09:46:44;;;;;;;27.25;12.50;;;;;;;11.82;43.63;101787.03;5021061;28;20644;-68
2024/03/19 09:49:16;;;;;;;26.25;11.43;;;;;;;12.07;44.27;101787.97;5021157;28;20187;-69
2024/03/19 09:51:41;;;;;;;;;;;;;;;11.95;43.62;101787.50;5030666;28;20029;-68
2024/03/19 09:54:11;;;;;;;22.38;9.68;;;;;;;11.36;44.83;101793.63;5022934;28;19920;-68
2024/03/19 09:56:37;;;;;;;20.92;11.70;;;;;;;11.76;44.08;101793.28;5028685;28;20040;-70
2024/03/19 09:59:04;;;;;;;24.88;11.77;;;;;;;11.83;43.22;101794.84;5026654;28;20037;-69
2024/03/19 10:01:30;;;;;;;20.88;11.88;;;;;;;11.84;44.14;101791.34;5022225;28;20033;-69
2024/03/19 10:03:57;;;;;;;22.25;11.20;;;;;;;11.66;45.21;101790.09;5027482;28;20036;-67
2024/03/19 10:06:22;;;;;;;23.50;11.32;;;;;;;11.39;45.98;101791.75;5020411;28;20025;-69
2024/03/19 10:08:48;;;;;;;22.77;11.80;;;;;;;10.50;46.97;101791.50;5027917;28;20122;-69
2024/03/19 10:11:14;;;;;;;24.42;11.55;;;;;;;11.40;45.55;101796.09;5017795;28;20541;-69
2024/03/19 10:13:39;;;;;;;28.08;12.38;;;;;;;11.11;46.89;101803.91;5023637;28;20686;-69
2024/03/19 10:16:05;;;;;;;19.70;11.45;;;;;;;10.64;47.43;101799.84;5028914;28;20028;-70
2024/03/19 10:18:31;;;;;;;22.48;11.95;;;;;;;11.00;47.87;101799.81;5022939;28;20044;-69
2024/03/19 10:20:57;;;;;;;21.55;12.00;;;;;;;10.79;48.33;101797.72;5024818;28;20037;-70
2024/03/19 10:23:23;;;;;;;25.77;12.30;;;;;;;11.10;48.07;101796.94;5029479;28;20047;-71
2024/03/19 10:25:54;;;;;;;28.83;11.57;;;;;;;11.12;47.47;101792.53;5027260;28;20502;-70
2024/03/19 10:28:20;;;;;;;19.30;11.40;;;;;;;9.91;50.07;101801.63;5025742;28;20831;-69
2024/03/19 10:30:49;;;;;;;21.75;11.18;;;;;;;10.96;48.51;101800.78;5030072;28;20033;-69
2024/03/19 10:33:15;;;;;;;22.27;10.85;;;;;;;11.28;47.30;101801.66;5022243;28;21241;-70
2024/03/19 10:35:42;;;;;;;18.00;11.00;;;;;;;10.78;47.95;101798.66;5033191;28;20056;-69
2024/03/19 10:38:11;;;;;;;18.80;10.40;;;;;;;11.27;47.23;101799.97;5021903;28;20494;-69
2024/03/19 10:40:37;;;;;;;19.83;10.93;;;;;;;11.49;46.60;101791.50;5030780;28;20619;-69
2024/03/19 10:43:04;;;;;;;22.30;10.43;;;;;;;10.98;48.73;101793.78;5026507;28;20037;-68
2024/03/19 10:45:31;;;;;;;21.42;10.13;;;;;;;11.16;47.90;101788.94;5041828;28;20090;-68
2024/03/19 10:47:57;;;;;;;19.02;10.73;;;;;;;11.51;46.25;101787.94;5027043;28;20139;-71
2024/03/19 10:50:23;;;;;;;21.10;10.20;;;;;;;11.46;46.43;101774.97;5060558;28;20025;-68
2024/03/19 10:52:55;;;;;;;18.00;9.95;;;;;;;11.81;46.48;101778.31;5028022;28;23015;-69
2024/03/19 10:55:22;;;;;;;21.50;8.52;;;;;;;12.24;44.96;101773.47;5023232;28;20047;-69
2024/03/19 10:57:47;;;;;;;16.10;9.13;;;;;;;12.38;45.34;101773.88;5028944;28;20668;-67
2024/03/19 11:00:27;;;;;;;15.05;8.50;;;;;;;13.01;44.31;101774.34;5030943;28;20071;-67
2024/03/19 11:02:58;;;;;;;14.88;8.50;;;;;;;12.79;43.61;101778.66;5035473;28;20044;-68
2024/03/19 11:05:24;;;;;;;13.93;7.70;;;;;;;11.36;46.67;101783.16;5030955;28;20091;-69
2024/03/19 11:07:51;;;;;;;13.57;7.47;;;;;;;11.32;46.43;101789.34;5029761;28;21428;-68
2024/03/19 11:10:26;;;;;;;14.05;7.75;;;;;;;10.78;48.18;101778.56;5024757;28;20037;-69
2024/03/19 11:13:07;;;;;;;14.80;7.30;;;;;;;10.93;47.80;101784.31;5029654;28;20068;-67
2024/03/19 11:15:36;;;;;;;9.18;6.15;;;;;;;11.28;47.02;101785.09;5029676;28;20040;-67